Time;durP1;ratioP1;P1;durP2;ratioP2;P2;SDS_P1;SDS_P2;PMS_P1;PMS_P2;Temp;Humidity;BMP_temperature;BMP_pressure;BME280_temperature;BME280_humidity;BME280_pressure;Samples;Min_cycle;Max_cycle;Signal;HPM_P1;HPM_P2
2024/01/29 00:00:46;;;;;;;39.87;18.50;;;;;;;2.88;66.78;102068.41;4965116;28;101705;-73
2024/01/29 00:03:12;;;;;;;44.07;18.17;;;;;;;2.88;67.06;102086.56;4948627;28;101178;-74
2024/01/29 00:05:38;;;;;;;41.20;18.83;;;;;;;2.66;67.26;102042.75;4957008;28;97720;-73
2024/01/29 00:08:03;;;;;;;39.77;18.07;;;;;;;2.71;66.75;102041.16;4968429;28;96881;-73
2024/01/29 00:10:29;;;;;;;43.50;17.43;;;;;;;2.85;67.20;102076.13;4953831;28;100712;-76
2024/01/29 00:12:54;;;;;;;41.67;18.13;;;;;;;2.86;66.71;102072.66;4969314;28;97489;-73
2024/01/29 00:15:20;;;;;;;43.20;17.80;;;;;;;2.87;66.86;102055.38;4935915;28;97343;-73
2024/01/29 00:17:45;;;;;;;50.10;18.80;;;;;;;2.87;66.74;102071.81;4967803;28;97230;-73
2024/01/29 00:20:11;;;;;;;42.43;18.47;;;;;;;2.69;67.07;102069.63;4951108;28;97415;-73
2024/01/29 00:22:37;;;;;;;37.73;17.90;;;;;;;2.84;66.80;102068.28;4967577;28;100754;-73
2024/01/29 00:25:02;;;;;;;43.40;18.97;;;;;;;2.98;66.39;102079.00;4946293;28;96839;-74
2024/01/29 00:27:28;;;;;;;41.93;19.47;;;;;;;3.09;66.06;102091.41;4949460;28;96838;-73
2024/01/29 00:29:54;;;;;;;39.17;17.53;;;;;;;3.11;65.92;102081.06;4965789;28;101001;-73
2024/01/29 00:32:19;;;;;;;37.20;17.53;;;;;;;3.14;65.84;102092.41;4974667;28;98807;-76
2024/01/29 00:34:46;;;;;;;40.30;18.50;;;;;;;2.92;66.08;102072.81;4974209;28;97447;-73
2024/01/29 00:37:12;;;;;;;34.73;16.70;;;;;;;2.95;66.16;102095.38;4939025;28;97015;-73
2024/01/29 00:39:37;;;;;;;35.77;17.43;;;;;;;2.81;66.75;102089.81;4981475;28;97300;-73
2024/01/29 00:42:03;;;;;;;36.97;16.17;;;;;;;2.77;66.37;102084.53;4939574;28;101727;-73
2024/01/29 00:44:29;;;;;;;33.20;15.93;;;;;;;2.70;66.86;102092.13;4948695;28;96811;-73
2024/01/29 00:46:54;;;;;;;35.70;16.87;;;;;;;2.75;66.76;102088.78;4954743;28;96929;-73
2024/01/29 00:49:21;;;;;;;38.20;16.13;;;;;;;2.56;66.79;102059.81;4953710;28;97265;-76
2024/01/29 00:51:46;;;;;;;34.03;15.70;;;;;;;2.67;67.03;102076.50;4953366;28;101085;-73
2024/01/29 00:54:12;;;;;;;35.83;16.60;;;;;;;2.55;67.61;102070.13;4957959;28;96802;-73
2024/01/29 00:56:37;;;;;;;38.30;16.50;;;;;;;2.62;67.46;102074.66;4956675;28;97317;-73
2024/01/29 00:59:03;;;;;;;35.43;16.90;;;;;;;2.63;67.15;102055.66;4978769;28;100727;-75
2024/01/29 01:01:29;;;;;;;36.80;16.17;;;;;;;2.85;66.78;102080.41;4984046;28;98421;-73
2024/01/29 01:03:55;;;;;;;36.53;16.10;;;;;;;2.65;66.61;102044.47;4992519;28;96823;-73
2024/01/29 01:06:20;;;;;;;48.97;17.87;;;;;;;2.83;66.54;102069.13;4997663;28;97167;-73
2024/01/29 01:08:46;;;;;;;30.10;14.03;;;;;;;2.80;66.54;102059.56;4967203;28;100807;-73
2024/01/29 01:11:12;;;;;;;42.17;16.17;;;;;;;2.74;66.96;102077.56;4982030;28;99369;-73
2024/01/29 01:13:37;;;;;;;34.60;17.07;;;;;;;2.67;66.62;102071.31;4977914;28;96840;-73
2024/01/29 01:16:03;;;;;;;40.67;17.63;;;;;;;2.69;66.96;102072.22;4994395;28;96886;-73
2024/01/29 01:18:29;;;;;;;32.07;14.50;;;;;;;2.60;67.12;102072.00;5012084;28;98105;-73
2024/01/29 01:20:55;;;;;;;32.17;14.63;;;;;;;2.51;67.34;102057.91;4962079;28;97728;-73
2024/01/29 01:23:20;;;;;;;31.17;15.47;;;;;;;2.35;67.80;102054.91;4968244;28;97143;-74
2024/01/29 01:25:46;;;;;;;35.80;15.60;;;;;;;2.49;67.44;102065.63;4968807;28;97285;-73
2024/01/29 01:28:11;;;;;;;31.77;14.87;;;;;;;2.41;67.20;102039.50;4953810;28;100814;-73
2024/01/29 01:30:37;;;;;;;35.93;15.63;;;;;;;2.60;67.04;102047.78;4971856;28;101258;-74
2024/01/29 01:33:02;;;;;;;31.70;14.80;;;;;;;2.69;66.69;102040.25;4989145;28;96845;-73
2024/01/29 01:35:28;;;;;;;31.83;13.93;;;;;;;2.87;66.18;102039.81;4966758;28;97433;-73
2024/01/29 01:37:53;;;;;;;34.37;14.23;;;;;;;3.17;65.57;102057.84;4991130;28;97490;-73
2024/01/29 01:40:19;;;;;;;35.97;16.67;;;;;;;3.21;65.41;102066.59;4959272;28;101031;-73
2024/01/29 01:42:44;;;;;;;31.37;13.30;;;;;;;3.20;64.93;102070.94;4960812;28;96777;-73
2024/01/29 01:45:11;;;;;;;34.37;14.90;;;;;;;2.97;65.70;102056.47;4963192;28;97089;-75
2024/01/29 01:47:37;;;;;;;32.47;15.53;;;;;;;3.05;65.33;102055.84;4996403;28;98194;-74
2024/01/29 01:50:08;;;;;;;28.07;13.77;;;;;;;2.93;65.87;102061.59;4960496;28;97309;-73
2024/01/29 01:52:34;;;;;;;30.33;13.67;;;;;;;2.88;65.54;102034.69;4962751;28;96800;-73
2024/01/29 01:55:00;;;;;;;32.70;14.70;;;;;;;2.82;65.80;102055.28;4975289;28;98029;-73
2024/01/29 01:57:28;;;;;;;38.17;14.77;;;;;;;2.85;65.89;102046.69;4960320;28;97536;-73
2024/01/29 01:59:54;;;;;;;30.83;14.20;;;;;;;2.82;66.48;102055.28;4979146;28;98875;-73
2024/01/29 02:02:20;;;;;;;32.30;14.37;;;;;;;2.71;66.25;102041.16;4963104;28;97147;-73
2024/01/29 02:04:45;;;;;;;37.00;15.37;;;;;;;2.76;66.23;102057.69;4990567;28;96857;-73
2024/01/29 02:07:11;;;;;;;29.37;14.27;;;;;;;2.61;66.40;102042.63;4994031;28;97600;-73
2024/01/29 02:09:36;;;;;;;34.80;15.67;;;;;;;2.44;66.76;102011.09;4960033;28;97641;-74
2024/01/29 02:12:02;;;;;;;28.63;14.27;;;;;;;2.53;66.69;102035.47;4951086;28;96809;-74
2024/01/29 02:14:28;;;;;;;31.87;15.00;;;;;;;2.43;67.31;102036.97;4978462;28;98059;-73
2024/01/29 02:16:53;;;;;;;32.87;13.43;;;;;;;2.51;67.15;102034.59;4959755;28;101628;-73
2024/01/29 02:19:19;;;;;;;33.73;15.27;;;;;;;2.52;66.66;102023.38;4964611;28;98136;-73
2024/01/29 02:21:45;;;;;;;32.27;14.80;;;;;;;2.54;66.83;102037.25;4980761;28;96751;-72
2024/01/29 02:24:10;;;;;;;28.67;14.03;;;;;;;2.48;66.76;102028.47;4968756;28;97076;-76
2024/01/29 02:26:36;;;;;;;36.50;16.33;;;;;;;2.44;67.24;102015.38;4972722;28;100810;-75
2024/01/29 02:29:01;;;;;;;38.23;15.40;;;;;;;2.23;67.17;101990.66;4965709;28;97953;-73
2024/01/29 02:31:27;;;;;;;32.40;15.60;;;;;;;2.08;67.48;101985.06;4961664;28;97172;-73
2024/01/29 02:33:53;;;;;;;39.73;16.50;;;;;;;2.22;67.77;101998.41;4960042;28;97088;-74
2024/01/29 02:36:18;;;;;;;40.80;17.30;;;;;;;2.34;67.65;102016.88;4967444;28;101034;-73
2024/01/29 02:38:44;;;;;;;32.47;17.17;;;;;;;2.22;68.07;102017.41;4958157;28;101373;-73
2024/01/29 02:41:09;;;;;;;32.77;15.37;;;;;;;2.23;68.05;102020.88;4945460;28;97145;-73
2024/01/29 02:43:35;;;;;;;33.53;15.93;;;;;;;2.26;68.01;102019.25;4962905;28;97592;-73
2024/01/29 02:46:00;;;;;;;40.07;16.50;;;;;;;2.12;68.26;101996.38;4975820;28;99219;-74
2024/01/29 02:48:26;;;;;;;36.00;16.13;;;;;;;2.06;68.51;101984.13;4992660;28;101345;-73
2024/01/29 02:50:52;;;;;;;34.80;16.07;;;;;;;2.34;67.53;102009.09;4968376;28;97318;-73
2024/01/29 02:53:17;;;;;;;36.57;16.43;;;;;;;2.33;67.90;102009.03;4981731;28;96934;-73
2024/01/29 02:55:43;;;;;;;36.93;15.87;;;;;;;2.20;67.56;101987.97;4971161;28;101169;-73
2024/01/29 02:58:08;;;;;;;37.07;15.37;;;;;;;2.37;67.79;102013.47;4985703;28;101168;-74
2024/01/29 03:00:34;;;;;;;36.00;17.07;;;;;;;2.09;67.85;101988.53;4968133;28;96825;-74
2024/01/29 03:03:00;;;;;;;32.93;15.20;;;;;;;1.98;68.14;101980.50;4962634;28;96772;-73
2024/01/29 03:05:25;;;;;;;33.87;14.90;;;;;;;2.06;68.38;101972.91;4976053;28;100359;-73
2024/01/29 03:07:51;;;;;;;31.17;16.30;;;;;;;2.16;68.23;102006.00;4996272;28;101346;-73
2024/01/29 03:10:16;;;;;;;38.17;15.60;;;;;;;2.18;67.82;102002.63;4985927;28;96785;-73
2024/01/29 03:12:42;;;;;;;34.13;15.63;;;;;;;2.17;68.25;102002.56;4964437;28;96885;-73
2024/01/29 03:15:08;;;;;;;33.60;15.53;;;;;;;2.09;68.70;102001.47;4988365;28;97893;-73
2024/01/29 03:17:33;;;;;;;35.37;16.40;;;;;;;2.03;68.27;101997.00;4959756;28;101096;-73
2024/01/29 03:19:59;;;;;;;37.83;18.00;;;;;;;1.90;68.92;101984.56;4964736;28;97030;-73
2024/01/29 03:22:24;;;;;;;33.00;15.47;;;;;;;1.73;68.91;101972.00;4992176;28;96931;-73
2024/01/29 03:24:50;;;;;;;33.73;16.93;;;;;;;1.71;69.51;101993.50;4994662;28;97554;-73
2024/01/29 03:27:15;;;;;;;34.23;15.57;;;;;;;1.63;69.48;101980.38;4972308;28;101147;-73
2024/01/29 03:29:41;;;;;;;32.00;16.07;;;;;;;1.79;68.84;101989.44;4981575;28;97130;-75
2024/01/29 03:32:06;;;;;;;36.00;15.97;;;;;;;1.93;68.63;101985.53;4991093;28;96882;-73
2024/01/29 03:34:32;;;;;;;32.83;15.50;;;;;;;1.91;68.97;101994.09;4983569;28;97464;-73
2024/01/29 03:36:57;;;;;;;30.83;17.27;;;;;;;1.89;69.03;101990.56;4960231;28;101620;-73
2024/01/29 03:39:23;;;;;;;31.23;15.87;;;;;;;1.92;68.98;102004.50;4989602;28;96888;-73
2024/01/29 03:41:48;;;;;;;31.43;16.60;;;;;;;1.99;68.81;101995.19;5003768;28;96875;-72
2024/01/29 03:44:15;;;;;;;33.90;17.70;;;;;;;2.06;68.95;101986.72;4972163;28;101330;-73
2024/01/29 03:46:41;;;;;;;29.03;15.40;;;;;;;2.05;68.63;101992.75;4978520;28;101524;-73
2024/01/29 03:49:07;;;;;;;31.27;16.23;;;;;;;1.97;68.62;101976.13;4969921;28;97209;-73
2024/01/29 03:51:32;;;;;;;34.13;17.40;;;;;;;1.81;68.39;101944.63;4965782;28;96943;-73
2024/01/29 03:53:58;;;;;;;27.97;14.77;;;;;;;1.89;68.31;101967.25;4969909;28;99232;-72
2024/01/29 03:56:23;;;;;;;37.23;16.03;;;;;;;2.03;69.00;101989.25;4996095;28;97398;-73
2024/01/29 03:58:49;;;;;;;36.87;15.53;;;;;;;1.92;68.69;101981.19;4976270;28;96865;-73
2024/01/29 04:01:14;;;;;;;31.87;14.97;;;;;;;1.86;68.71;101968.03;4963843;28;96797;-73
2024/01/29 04:03:40;;;;;;;32.73;16.23;;;;;;;1.84;68.68;101992.16;4968661;28;99572;-73
2024/01/29 04:06:06;;;;;;;35.13;16.43;;;;;;;1.79;69.22;101969.59;4972172;28;100238;-74
2024/01/29 04:08:32;;;;;;;31.97;16.60;;;;;;;1.68;68.46;101945.09;4981440;28;96785;-73
2024/01/29 04:10:57;;;;;;;30.47;15.57;;;;;;;1.98;68.58;101981.34;4969857;28;96793;-73
2024/01/29 04:13:23;;;;;;;32.43;16.47;;;;;;;1.92;68.77;101970.84;4984805;28;97397;-73
2024/01/29 04:15:48;;;;;;;34.13;17.90;;;;;;;1.93;68.66;101967.41;4972504;28;101834;-73
2024/01/29 04:18:13;;;;;;;38.83;17.73;;;;;;;1.86;68.89;101959.41;4972603;28;96808;-73
2024/01/29 04:20:39;;;;;;;33.90;18.37;;;;;;;1.86;68.83;101973.22;4984204;28;97114;-72
2024/01/29 04:23:05;;;;;;;37.23;19.20;;;;;;;1.95;68.79;101952.78;4964906;28;101370;-72
2024/01/29 04:25:30;;;;;;;35.63;18.20;;;;;;;2.07;68.40;101956.53;4966228;28;97285;-74
2024/01/29 04:27:55;;;;;;;39.97;21.43;;;;;;;2.07;68.10;101966.91;4953446;28;97154;-74
2024/01/29 04:30:21;;;;;;;33.33;18.20;;;;;;;1.85;69.00;101966.31;4966490;28;97110;-76
2024/01/29 04:32:46;;;;;;;42.03;19.03;;;;;;;1.64;68.87;101914.81;4971658;28;101412;-75
2024/01/29 04:35:12;;;;;;;36.77;18.70;;;;;;;1.86;68.73;101955.09;4981744;28;97944;-72
2024/01/29 04:37:38;;;;;;;43.37;20.33;;;;;;;2.00;68.56;101965.84;4968052;28;96765;-72
2024/01/29 04:40:03;;;;;;;34.93;18.73;;;;;;;1.93;68.17;101959.63;4988062;28;96777;-73
2024/01/29 04:42:29;;;;;;;39.23;20.10;;;;;;;1.94;68.37;101969.13;4967867;28;101512;-72
2024/01/29 04:44:54;;;;;;;37.00;19.80;;;;;;;1.91;68.10;101971.66;4985734;28;97983;-73
2024/01/29 04:47:20;;;;;;;35.80;19.57;;;;;;;1.73;68.71;101942.66;4979068;28;96917;-72
2024/01/29 04:49:45;;;;;;;38.93;19.73;;;;;;;1.74;69.14;101944.41;4965728;28;96988;-73
2024/01/29 04:52:11;;;;;;;39.63;21.20;;;;;;;1.50;69.41;101929.06;4949987;28;101213;-76
2024/01/29 04:54:37;;;;;;;39.63;20.83;;;;;;;1.56;69.39;101953.41;4989872;28;97981;-73
2024/01/29 04:57:03;;;;;;;34.33;19.80;;;;;;;1.63;69.50;101946.72;5013797;28;97184;-73
2024/01/29 04:59:28;;;;;;;37.07;21.57;;;;;;;1.57;69.74;101943.91;4947559;28;97132;-72
2024/01/29 05:01:54;;;;;;;38.40;19.20;;;;;;;1.67;69.24;101935.59;4987526;28;98548;-73
2024/01/29 05:04:19;;;;;;;43.07;20.30;;;;;;;1.60;69.17;101933.69;4978497;28;101101;-73
2024/01/29 05:06:45;;;;;;;36.63;19.73;;;;;;;1.58;69.73;101948.28;4996093;28;96728;-73
2024/01/29 05:09:11;;;;;;;41.43;21.77;;;;;;;1.15;69.93;101890.09;4984625;28;97136;-72
2024/01/29 05:11:39;;;;;;;38.20;19.50;;;;;;;1.56;69.60;101942.19;4983783;28;97847;-73
2024/01/29 05:14:05;;;;;;;40.07;21.37;;;;;;;1.50;69.66;101929.94;4992846;28;97452;-73
2024/01/29 05:16:32;;;;;;;44.40;21.23;;;;;;;1.54;69.59;101936.97;4985503;28;97152;-72
2024/01/29 05:18:58;;;;;;;47.53;22.37;;;;;;;1.40;69.93;101907.22;4977873;28;97247;-73
2024/01/29 05:21:23;;;;;;;40.17;21.27;;;;;;;1.43;70.52;101935.78;4964569;28;101617;-73
2024/01/29 05:23:49;;;;;;;47.00;22.73;;;;;;;1.33;70.14;101932.03;4963785;28;101361;-72
2024/01/29 05:26:14;;;;;;;48.03;22.80;;;;;;;1.26;70.92;101926.66;4961235;28;96669;-72
2024/01/29 05:28:40;;;;;;;37.67;23.70;;;;;;;1.27;70.65;101931.84;4990588;28;97211;-72
2024/01/29 05:31:05;;;;;;;46.30;24.10;;;;;;;1.16;71.20;101922.03;4969917;28;98352;-72
2024/01/29 05:33:31;;;;;;;40.47;23.47;;;;;;;1.28;70.70;101930.13;4974089;28;97895;-72
2024/01/29 05:35:56;;;;;;;41.70;22.70;;;;;;;1.34;70.55;101930.34;4989601;28;96942;-75
2024/01/29 05:38:22;;;;;;;43.20;22.57;;;;;;;1.32;70.53;101935.47;4962563;28;97175;-72
2024/01/29 05:40:47;;;;;;;46.90;24.00;;;;;;;1.35;70.83;101927.78;4986894;28;97980;-72
2024/01/29 05:43:13;;;;;;;41.57;25.13;;;;;;;1.26;70.97;101937.88;4981733;28;97957;-72
2024/01/29 05:45:38;;;;;;;44.43;24.03;;;;;;;1.38;70.12;101942.53;4967964;28;97360;-72
2024/01/29 05:48:07;;;;;;;49.70;25.67;;;;;;;1.24;70.48;101921.41;4971610;28;97365;-72
2024/01/29 05:50:32;;;;;;;42.90;23.90;;;;;;;1.19;70.17;101917.81;4964458;28;97515;-72
2024/01/29 05:52:58;;;;;;;47.33;24.53;;;;;;;1.29;70.86;101929.31;4966617;28;97171;-77
2024/01/29 05:55:23;;;;;;;42.90;24.57;;;;;;;1.31;70.47;101936.31;4969780;28;97399;-77
2024/01/29 05:57:49;;;;;;;42.03;24.73;;;;;;;1.28;70.40;101931.03;4991936;28;96880;-76
2024/01/29 06:00:15;;;;;;;40.83;23.43;;;;;;;1.37;70.27;101927.84;4994072;28;97233;-73
2024/01/29 06:02:45;;;;;;;48.17;25.67;;;;;;;1.32;70.47;101939.75;4962191;28;101126;-74
2024/01/29 06:05:11;;;;;;;48.57;24.10;;;;;;;1.32;71.00;101937.19;4965185;28;97348;-77
2024/01/29 06:07:38;;;;;;;43.23;24.03;;;;;;;1.24;70.50;101929.19;4970614;28;97332;-72
2024/01/29 06:10:05;;;;;;;43.87;24.60;;;;;;;1.35;70.71;101939.84;4995261;28;97480;-71
2024/01/29 06:12:30;;;;;;;43.90;24.87;;;;;;;1.06;70.96;101923.47;4962760;28;102060;-80
2024/01/29 06:14:56;;;;;;;50.77;25.53;;;;;;;1.11;70.87;101911.56;4991800;28;96820;-77
2024/01/29 06:17:21;;;;;;;42.40;23.60;;;;;;;1.38;70.85;101945.13;4995081;28;97456;-74
2024/01/29 06:19:47;;;;;;;51.83;26.40;;;;;;;1.35;69.99;101939.84;4977727;28;101292;-79
2024/01/29 06:22:12;;;;;;;46.83;27.17;;;;;;;1.36;70.33;101939.88;4984566;28;97360;-79
2024/01/29 06:24:38;;;;;;;46.73;27.33;;;;;;;1.41;70.18;101947.78;4964152;28;97011;-79
2024/01/29 06:27:03;;;;;;;44.97;24.90;;;;;;;1.17;70.17;101916.91;4975792;28;96840;-79
2024/01/29 06:29:29;;;;;;;45.87;24.83;;;;;;;1.44;69.73;101941.84;4976985;28;101462;-79
2024/01/29 06:31:54;;;;;;;45.90;25.93;;;;;;;1.57;69.59;101955.19;4974123;28;101498;-79
2024/01/29 06:34:23;;;;;;;47.40;25.00;;;;;;;1.39;69.13;101920.13;4953088;28;96877;-79
2024/01/29 06:36:51;;;;;;;46.10;24.13;;;;;;;1.44;69.38;101942.72;4976076;28;96795;-78
2024/01/29 06:39:16;;;;;;;46.93;25.10;;;;;;;1.42;69.54;101934.00;4979780;28;98220;-78
2024/01/29 06:41:42;;;;;;;49.47;25.80;;;;;;;1.40;69.70;101946.06;4961754;28;101222;-79
2024/01/29 06:44:07;;;;;;;45.20;25.87;;;;;;;1.12;70.03;101905.53;4968044;28;96838;-79
2024/01/29 06:46:33;;;;;;;49.30;26.77;;;;;;;1.33;70.32;101938.91;4982340;28;98112;-79
2024/01/29 06:48:58;;;;;;;53.17;27.10;;;;;;;1.35;69.90;101943.31;4966078;28;101808;-79
2024/01/29 06:51:24;;;;;;;46.20;25.67;;;;;;;1.26;69.86;101937.00;4966130;28;101849;-79
2024/01/29 06:53:50;;;;;;;48.53;26.07;;;;;;;1.40;70.14;101945.16;4975815;28;96806;-79
2024/01/29 06:56:15;;;;;;;50.13;26.60;;;;;;;1.14;70.10;101901.28;4978798;28;97500;-80
2024/01/29 06:58:41;;;;;;;56.97;26.83;;;;;;;1.37;69.80;101948.56;4968349;28;97412;-79
2024/01/29 07:01:07;;;;;;;51.07;27.23;;;;;;;1.31;70.13;101940.59;4959545;28;101257;-80
2024/01/29 07:03:34;;;;;;;47.70;26.33;;;;;;;1.42;69.63;101949.53;4985590;28;98034;-79
2024/01/29 07:05:59;;;;;;;53.23;27.20;;;;;;;1.32;70.21;101939.75;4964320;28;96928;-79
2024/01/29 07:08:25;;;;;;;47.97;25.80;;;;;;;1.20;70.23;101918.72;4973604;28;98221;-71
2024/01/29 07:10:51;;;;;;;43.70;26.03;;;;;;;1.48;69.83;101949.72;4981848;28;101316;-72
2024/01/29 07:13:16;;;;;;;46.23;25.20;;;;;;;1.42;69.66;101934.00;4980529;28;97459;-74
2024/01/29 07:15:42;;;;;;;52.73;27.03;;;;;;;1.33;69.65;101949.28;4984288;28;96907;-80
2024/01/29 07:18:08;;;;;;;46.50;25.17;;;;;;;1.10;70.28;101909.78;4962352;28;101330;-82
2024/01/29 07:20:39;;;;;;;46.13;25.77;;;;;;;1.52;69.81;101950.69;4963262;28;101427;-81
2024/01/29 07:23:05;;;;;;;55.73;27.53;;;;;;;1.74;69.41;101953.03;4961515;28;97152;-78
2024/01/29 07:25:31;;;;;;;52.80;26.30;;;;;;;1.91;68.43;101955.22;4967841;28;97174;-77
2024/01/29 07:27:59;;;;;;;46.37;27.43;;;;;;;2.23;67.78;101944.00;4988961;28;101240;-80
2024/01/29 07:30:26;;;;;;;46.83;27.10;;;;;;;2.32;67.60;101956.31;4961058;28;97674;-79
2024/01/29 07:32:51;;;;;;;51.37;26.27;;;;;;;2.52;66.58;101937.81;4994513;28;98038;-79
2024/01/29 07:35:17;;;;;;;45.20;23.93;;;;;;;2.93;65.80;101950.03;4961515;28;96891;-80
2024/01/29 07:37:43;;;;;;;45.93;25.60;;;;;;;2.97;64.65;101913.78;4991050;28;97422;-80
2024/01/29 07:40:08;;;;;;;45.40;25.47;;;;;;;3.36;64.13;101952.72;4961354;28;101473;-80
2024/01/29 07:42:34;;;;;;;49.03;26.20;;;;;;;3.54;63.23;101921.09;4977407;28;97599;-80
2024/01/29 07:44:59;;;;;;;46.93;26.20;;;;;;;3.39;63.06;101906.94;4989838;28;97048;-79
2024/01/29 07:47:26;;;;;;;45.30;24.90;;;;;;;3.89;62.73;101949.47;4972674;28;101772;-80
2024/01/29 07:49:51;;;;;;;44.63;25.07;;;;;;;4.21;61.48;101952.69;4968299;28;101466;-80
2024/01/29 07:52:17;;;;;;;41.83;23.73;;;;;;;4.22;60.89;101913.72;4977941;28;97407;-80
2024/01/29 07:54:42;;;;;;;45.90;26.03;;;;;;;4.33;60.80;101945.09;4987094;28;96910;-80
2024/01/29 07:57:08;;;;;;;45.60;24.87;;;;;;;4.79;59.96;101922.44;4967137;28;100841;-81
2024/01/29 07:59:34;;;;;;;44.87;24.23;;;;;;;5.02;59.36;101930.59;4975685;28;101465;-80
2024/01/29 08:01:59;;;;;;;46.50;23.57;;;;;;;5.26;58.67;101940.44;4987689;28;96848;-80
2024/01/29 08:04:25;;;;;;;46.60;25.33;;;;;;;5.25;57.71;101914.41;4965858;28;96901;-80
2024/01/29 08:06:50;;;;;;;67.13;32.27;;;;;;;5.15;58.20;101906.47;4982993;28;101760;-80
2024/01/29 08:09:16;;;;;;;55.87;29.07;;;;;;;5.52;57.80;101926.91;5008432;28;97958;-79
2024/01/29 08:11:41;;;;;;;45.03;24.40;;;;;;;5.86;56.90;101922.97;4961582;28;96813;-77
2024/01/29 08:14:07;;;;;;;44.72;23.42;;;;;;;5.93;56.20;101914.38;4988892;28;97423;-79
2024/01/29 08:16:32;;;;;;;42.88;23.58;;;;;;;6.00;56.27;101913.59;4986043;28;101568;-80
2024/01/29 08:18:58;;;;;;;43.72;23.73;;;;;;;5.97;55.62;101921.38;4977173;28;101216;-79
2024/01/29 08:21:24;;;;;;;45.38;24.50;;;;;;;6.43;54.63;101911.38;4990339;28;96760;-80
2024/01/29 08:23:49;;;;;;;47.72;24.40;;;;;;;6.42;54.16;101903.53;4990799;28;96916;-80
2024/01/29 08:26:15;;;;;;;42.25;24.90;;;;;;;6.39;54.48;101893.06;4978873;28;98093;-78
2024/01/29 08:28:41;;;;;;;38.05;22.38;;;;;;;7.07;53.51;101916.19;4970888;28;99595;-78
2024/01/29 08:31:06;;;;;;;45.88;23.52;;;;;;;7.51;52.60;101906.81;4980775;28;96804;-80
2024/01/29 08:33:32;;;;;;;38.10;23.63;;;;;;;7.62;51.74;101910.31;4994216;28;96991;-78
2024/01/29 08:35:58;;;;;;;47.30;23.98;;;;;;;7.12;52.10;101909.22;4993485;28;97533;-78
2024/01/29 08:38:24;;;;;;;44.47;22.38;;;;;;;7.56;51.49;101899.84;4968906;28;98276;-78
2024/01/29 08:40:50;;;;;;;44.47;23.38;;;;;;;7.75;51.04;101901.66;4983001;28;96891;-77
2024/01/29 08:43:16;;;;;;;40.20;21.65;;;;;;;8.24;50.69;101929.66;4979586;28;97323;-78
2024/01/29 08:45:41;;;;;;;42.25;23.13;;;;;;;8.41;49.75;101927.06;4980087;28;97909;-81
2024/01/29 08:48:07;;;;;;;43.00;23.15;;;;;;;8.38;49.53;101912.22;4965474;28;97671;-79
2024/01/29 08:50:34;;;;;;;38.65;22.48;;;;;;;8.83;49.36;101915.72;4987526;28;97155;-78
2024/01/29 08:53:00;;;;;;;42.47;22.30;;;;;;;9.37;48.13;101932.19;4977547;28;96818;-78
2024/01/29 08:55:25;;;;;;;38.45;22.00;;;;;;;9.21;47.30;101922.59;4988790;28;100946;-78
2024/01/29 08:57:51;;;;;;;41.38;22.98;;;;;;;9.32;47.47;101931.31;4993457;28;100984;-78
2024/01/29 09:00:16;;;;;;;39.17;23.20;;;;;;;9.39;46.66;101938.25;4996302;28;96972;-78
2024/01/29 09:02:43;;;;;;;39.33;20.27;;;;;;;9.73;46.87;101943.38;4967761;28;97744;-78
2024/01/29 09:05:08;;;;;;;44.50;22.98;;;;;;;9.62;46.76;101922.44;4972654;28;101577;-79
2024/01/29 09:07:34;;;;;;;40.20;21.48;;;;;;;9.67;46.70;101946.03;4980418;28;98119;-78
2024/01/29 09:10:00;;;;;;;35.03;20.77;;;;;;;9.74;46.51;101935.53;4959119;28;96908;-78
2024/01/29 09:12:25;;;;;;;37.70;22.25;;;;;;;10.23;45.66;101936.09;4953953;28;97354;-79
2024/01/29 09:14:51;;;;;;;39.88;21.35;;;;;;;10.82;44.64;101934.75;4978434;28;97879;-79
2024/01/29 09:17:16;;;;;;;34.78;20.85;;;;;;;10.70;44.29;101948.88;4963278;28;101061;-80
2024/01/29 09:19:45;;;;;;;37.10;20.92;;;;;;;10.80;44.16;101939.16;4986151;28;96701;-79
2024/01/29 09:22:11;;;;;;;38.78;20.25;;;;;;;10.39;45.18;101954.38;4955706;28;97246;-80
2024/01/29 09:24:37;;;;;;;41.35;21.73;;;;;;;10.43;44.45;101936.84;5003375;28;97789;-80
2024/01/29 09:27:02;;;;;;;32.95;19.67;;;;;;;10.47;44.60;101935.97;4975012;28;97400;-79
2024/01/29 09:29:28;;;;;;;39.53;19.95;;;;;;;10.32;45.12;101943.94;4984637;28;97365;-80
2024/01/29 09:31:53;;;;;;;36.42;19.77;;;;;;;10.99;43.95;101934.59;4970291;28;97449;-80
2024/01/29 09:34:20;;;;;;;34.50;20.10;;;;;;;11.17;43.65;101936.16;4986593;28;97360;-79
2024/01/29 09:36:46;;;;;;;35.15;19.33;;;;;;;11.50;42.88;101937.53;4976673;28;98765;-79
2024/01/29 09:39:12;;;;;;;38.95;20.38;;;;;;;11.23;43.23;101891.44;4961578;28;96991;-76
2024/01/29 09:41:40;;;;;;;35.13;19.38;;;;;;;10.84;43.43;101941.75;4950600;28;97398;-79
2024/01/29 09:44:06;;;;;;;35.75;19.25;;;;;;;11.55;42.63;101944.50;4995736;28;98114;-76
2024/01/29 09:46:41;;;;;;;32.65;19.38;;;;;;;11.74;42.22;101938.97;4968404;28;97458;-76
2024/01/29 09:49:07;;;;;;;35.85;19.35;;;;;;;11.49;42.46;101915.63;4964743;28;97410;-77
2024/01/29 09:51:34;;;;;;;42.25;20.27;;;;;;;11.33;42.96;101937.72;4984107;28;97432;-78
2024/01/29 09:54:01;;;;;;;40.40;20.85;;;;;;;11.10;43.44;101930.09;5003718;28;97446;-78
2024/01/29 09:56:27;;;;;;;33.50;20.13;;;;;;;11.00;43.90;101936.34;4970596;28;101472;-77
2024/01/29 09:58:54;;;;;;;37.42;19.25;;;;;;;10.83;44.30;101944.41;4951655;28;96947;-77
2024/01/29 10:01:20;;;;;;;36.90;19.17;;;;;;;10.62;44.43;101942.84;4968620;28;97732;-76
2024/01/29 10:03:46;;;;;;;33.10;19.23;;;;;;;10.51;45.27;101927.16;4985793;28;97459;-80
2024/01/29 10:06:12;;;;;;;35.22;20.17;;;;;;;10.11;46.22;101948.41;4966164;28;101720;-75
2024/01/29 10:08:38;;;;;;;43.58;20.52;;;;;;;10.12;46.33;101939.69;4984124;28;97274;-75
2024/01/29 10:11:04;;;;;;;32.42;18.55;;;;;;;9.64;46.79;101927.69;4965640;28;97570;-76
2024/01/29 10:13:30;;;;;;;31.27;18.10;;;;;;;9.70;46.94;101912.78;4980195;28;98670;-73
2024/01/29 10:15:56;;;;;;;35.45;18.13;;;;;;;9.38;47.27;101920.81;4999821;28;97343;-73
2024/01/29 10:18:21;;;;;;;38.90;18.52;;;;;;;9.44;47.62;101918.16;4969617;28;97375;-73
2024/01/29 10:20:47;;;;;;;35.40;19.15;;;;;;;9.94;47.82;101927.50;4986285;28;97340;-72
2024/01/29 10:23:13;;;;;;;35.88;18.00;;;;;;;9.77;47.42;101904.88;4978538;28;99551;-75
2024/01/29 10:25:39;;;;;;;34.95;19.08;;;;;;;9.97;47.43;101929.25;4994708;28;99074;-74
2024/01/29 10:28:05;;;;;;;30.85;17.08;;;;;;;10.07;47.40;101925.72;4998676;28;97293;-73
2024/01/29 10:30:30;;;;;;;37.15;16.98;;;;;;;10.12;47.05;101917.78;5002341;28;97201;-73
2024/01/29 10:32:56;;;;;;;36.95;17.33;;;;;;;9.92;47.69;101916.19;5000200;28;97652;-74
2024/01/29 10:35:21;;;;;;;32.15;15.70;;;;;;;9.72;47.72;101903.19;4951598;28;100955;-73
2024/01/29 10:37:47;;;;;;;33.00;16.60;;;;;;;9.79;47.83;101909.25;4969292;28;97739;-73
2024/01/29 10:40:15;;;;;;;33.53;15.65;;;;;;;10.00;47.12;101903.00;4984388;28;97660;-72
2024/01/29 10:42:42;;;;;;;29.63;15.10;;;;;;;10.04;47.58;101902.13;4979154;28;98054;-73
2024/01/29 10:45:08;;;;;;;29.13;11.85;;;;;;;10.15;46.71;101907.25;4995067;28;97376;-73
2024/01/29 10:47:39;;;;;;;29.27;13.27;;;;;;;10.01;47.24;101911.75;4967178;28;97884;-72
2024/01/29 10:50:06;;;;;;;31.90;13.25;;;;;;;9.90;47.17;101917.06;4966337;28;97461;-74
2024/01/29 10:52:31;;;;;;;24.83;11.02;;;;;;;9.94;47.34;101905.66;4982094;28;97930;-74
2024/01/29 10:54:57;;;;;;;21.83;10.52;;;;;;;9.92;47.60;101903.06;4970687;28;97312;-72
2024/01/29 10:57:23;;;;;;;28.38;13.65;;;;;;;10.08;47.25;101895.09;5003752;28;97132;-74
2024/01/29 10:59:48;;;;;;;18.52;8.95;;;;;;;9.95;47.37;101878.56;4967331;28;97125;-75
2024/01/29 11:02:15;;;;;;;29.77;13.23;;;;;;;10.38;46.67;101892.28;4982193;28;97421;-73
2024/01/29 11:04:40;;;;;;;34.95;15.32;;;;;;;10.43;46.84;101884.34;4954785;28;100989;-74
2024/01/29 11:07:22;;;;;;;19.00;7.43;;;;;;;10.45;46.82;101873.84;4984648;28;97536;-79